Time,TemperatureF,DewpointF,PressureIn,WindDirection,WindDirectionDegrees,WindSpeedMPH,WindSpeedGustMPH,Humidity,HourlyPrecipIn,Conditions,Clouds,dailyrainin,SoftwareType,DateUTC
2013-01-14 00:04:00,41.9,42.0,29.97,SSW,202,0.0,1.0,99,0.00,,,0.27,weatherlink.com 1.10,2013-01-14 05:04:00,
2013-01-14 00:19:00,40.7,41.0,29.96,SSW,196,1.0,1.0,99,0.00,,,0.00,weatherlink.com 1.10,2013-01-14 05:19:00,
2013-01-14 00:34:00,41.6,42.0,29.95,NE,50,0.0,1.0,100,0.00,,,0.00,weatherlink.com 1.10,2013-01-14 05:34:00,
2013-01-14 00:50:00,42.6,43.0,29.94,NE,52,0.0,2.0,100,0.00,,,0.00,weatherlink.com 1.10,2013-01-14 05:50:00,
2013-01-14 01:05:00,43.3,43.0,29.94,NE,53,0.0,0.0,100,0.00,,,0.00,weatherlink.com 1.10,2013-01-14 06:05:00,
2013-01-14 01:20:00,43.5,44.0,29.94,NE,53,0.0,1.0,100,0.00,,,0.00,weatherlink.com 1.10,2013-01-14 06:20:00,
2013-01-14 01:35:00,44.8,45.0,29.94,SE,141,0.0,1.0,100,0.00,,,0.00,weatherlink.com 1.10,2013-01-14 06:35:00,
2013-01-14 01:50:00,44.9,45.0,29.93,NE,56,1.0,2.0,100,0.00,,,0.00,weatherlink.com 1.10,2013-01-14 06:50:00,
2013-01-14 02:05:00,46.4,46.0,29.92,SSE,152,0.0,2.0,100,0.00,,,0.00,weatherlink.com 1.10,2013-01-14 07:05:00,
2013-01-14 02:20:00,44.9,45.0,29.92,SSW,205,0.0,0.0,100,0.00,,,0.00,weatherlink.com 1.10,2013-01-14 07:20:00,
2013-01-14 02:35:00,43.3,43.0,29.92,ESE,102,1.0,1.0,100,0.00,,,0.00,weatherlink.com 1.10,2013-01-14 07:35:00,
2013-01-14 02:50:00,43.8,44.0,29.91,East,98,0.0,1.0,100,0.00,,,0.00,weatherlink.com 1.10,2013-01-14 07:50:00,
2013-01-14 03:05:00,43.9,44.0,29.90,East,98,1.0,1.0,100,0.00,,,0.00,weatherlink.com 1.10,2013-01-14 08:05:00,
2013-01-14 03:20:00,44.1,44.0,29.90,ENE,69,1.0,2.0,100,0.00,,,0.00,weatherlink.com 1.10,2013-01-14 08:20:00,
2013-01-14 03:35:00,44.1,44.0,29.88,ENE,69,0.0,2.0,100,0.00,,,0.00,weatherlink.com 1.10,2013-01-14 08:35:00,
2013-01-14 03:50:00,43.7,44.0,29.86,ENE,69,0.0,1.0,100,0.00,,,0.00,weatherlink.com 1.10,2013-01-14 08:50:00,
2013-01-14 04:05:00,44.5,45.0,29.84,NW,321,0.0,1.0,100,0.00,,,0.00,weatherlink.com 1.10,2013-01-14 09:05:00,
2013-01-14 04:20:00,46.0,46.0,29.82,NE,51,0.0,2.0,100,0.00,,,0.00,weatherlink.com 1.10,2013-01-14 09:20:00,
2013-01-14 04:35:00,46.2,46.0,29.83,NE,51,2.0,2.0,100,0.00,,,0.00,weatherlink.com 1.10,2013-01-14 09:35:00,
2013-01-14 04:50:00,44.7,45.0,29.82,NE,51,2.0,3.0,100,0.00,,,0.00,weatherlink.com 1.10,2013-01-14 09:50:00,
2013-01-14 05:05:00,45.9,46.0,29.83,NNE,31,0.0,2.0,100,0.00,,,0.00,weatherlink.com 1.10,2013-01-14 10:05:00,
2013-01-14 05:20:00,42.6,42.0,29.84,ENE,63,5.0,7.0,99,0.00,,,0.00,weatherlink.com 1.10,2013-01-14 10:20:00,
2013-01-14 05:35:00,40.8,41.0,29.85,NNE,25,1.0,5.0,99,0.00,,,0.00,weatherlink.com 1.10,2013-01-14 10:35:00,
2013-01-14 05:50:00,40.5,41.0,29.86,NE,44,2.0,3.0,100,0.00,,,0.00,weatherlink.com 1.10,2013-01-14 10:50:00,
2013-01-14 06:05:00,41.1,41.0,29.86,NNE,26,0.0,2.0,100,0.00,,,0.00,weatherlink.com 1.10,2013-01-14 11:05:00,
2013-01-14 06:20:00,42.8,43.0,29.86,NE,48,1.0,2.0,100,0.00,,,0.00,weatherlink.com 1.10,2013-01-14 11:20:00,
2013-01-14 06:35:00,44.4,44.0,29.88,NNW,331,0.0,3.0,100,0.00,,,0.00,weatherlink.com 1.10,2013-01-14 11:35:00,
2013-01-14 06:50:00,45.2,45.0,29.87,ESE,110,1.0,2.0,100,0.00,,,0.00,weatherlink.com 1.10,2013-01-14 11:50:00,
2013-01-14 07:05:00,45.3,45.0,29.87,NE,51,1.0,2.0,100,0.00,,,0.00,weatherlink.com 1.10,2013-01-14 12:05:00,
2013-01-14 07:20:00,46.5,47.0,29.88,North,355,2.0,3.0,100,0.00,,,0.00,weatherlink.com 1.10,2013-01-14 12:20:00,
2013-01-14 07:35:00,47.7,48.0,29.90,ENE,64,0.0,2.0,100,0.00,,,0.00,weatherlink.com 1.10,2013-01-14 12:35:00,
2013-01-14 07:50:00,47.8,47.0,29.92,NE,40,0.0,3.0,98,0.00,,,0.00,weatherlink.com 1.10,2013-01-14 12:50:00,
2013-01-14 08:05:00,47.8,47.0,29.93,NE,46,2.0,3.0,96,0.00,,,0.00,weatherlink.com 1.10,2013-01-14 13:05:00,
2013-01-14 08:20:00,47.1,46.0,29.94,East,84,0.0,3.0,97,0.00,,,0.00,weatherlink.com 1.10,2013-01-14 13:20:00,
2013-01-14 08:35:00,47.0,46.0,29.95,NE,38,2.0,3.0,96,0.00,,,0.00,weatherlink.com 1.10,2013-01-14 13:35:00,
2013-01-14 08:50:00,46.8,46.0,29.96,SE,133,0.0,5.0,96,0.00,,,0.00,weatherlink.com 1.10,2013-01-14 13:50:00,
2013-01-14 09:05:00,46.1,45.0,29.96,SE,142,0.0,2.0,97,0.00,,,0.00,weatherlink.com 1.10,2013-01-14 14:05:00,
2013-01-14 09:20:00,45.8,45.0,29.96,East,84,0.0,1.0,97,0.00,,,0.00,weatherlink.com 1.10,2013-01-14 14:20:00,
2013-01-14 09:35:00,46.1,46.0,29.96,SE,128,0.0,3.0,98,0.00,,,0.00,weatherlink.com 1.10,2013-01-14 14:35:00,
2013-01-14 09:50:00,46.0,46.0,29.97,SE,128,1.0,2.0,98,0.00,,,0.00,weatherlink.com 1.10,2013-01-14 14:50:00,
2013-01-14 10:05:00,47.7,47.0,29.97,WSW,245,0.0,2.0,97,0.00,,,0.00,weatherlink.com 1.10,2013-01-14 15:05:00,
2013-01-14 10:21:00,49.2,47.0,29.98,SSE,159,0.0,2.0,92,0.00,,,0.00,weatherlink.com 1.10,2013-01-14 15:21:00,
2013-01-14 10:36:00,48.8,46.0,29.98,East,87,0.0,2.0,90,0.00,,,0.00,weatherlink.com 1.10,2013-01-14 15:36:00,
2013-01-14 10:51:00,48.5,46.0,29.97,ENE,75,0.0,4.0,89,0.00,,,0.00,weatherlink.com 1.10,2013-01-14 15:51:00,
2013-01-14 11:06:00,48.7,45.0,29.98,ENE,61,0.0,2.0,88,0.00,,,0.00,weatherlink.com 1.10,2013-01-14 16:06:00,
2013-01-14 11:21:00,47.8,45.0,29.98,SW,218,0.0,4.0,88,0.00,,,0.00,weatherlink.com 1.10,2013-01-14 16:21:00,
2013-01-14 11:36:00,46.9,44.0,29.99,NNW,346,0.0,5.0,89,0.00,,,0.00,weatherlink.com 1.10,2013-01-14 16:36:00,
2013-01-14 11:51:00,45.8,43.0,30.00,SE,131,0.0,1.0,90,0.00,,,0.00,weatherlink.com 1.10,2013-01-14 16:51:00,
2013-01-14 12:06:00,44.8,41.0,30.01,ESE,121,0.0,3.0,85,0.00,,,0.00,weatherlink.com 1.10,2013-01-14 17:06:00,
2013-01-14 12:21:00,44.5,40.0,30.02,NE,46,1.0,3.0,83,0.00,,,0.00,weatherlink.com 1.10,2013-01-14 17:21:00,
2013-01-14 12:36:00,44.4,39.0,30.03,NNE,33,0.0,3.0,82,0.00,,,0.00,weatherlink.com 1.10,2013-01-14 17:36:00,
2013-01-14 12:51:00,43.5,38.0,30.03,WNW,299,0.0,3.0,81,0.00,,,0.00,weatherlink.com 1.10,2013-01-14 17:51:00,
2013-01-14 13:06:00,42.3,37.0,30.03,NE,36,0.0,1.0,81,0.00,,,0.00,weatherlink.com 1.10,2013-01-14 18:06:00,
2013-01-14 13:21:00,42.5,36.0,30.04,NNW,327,0.0,3.0,78,0.00,,,0.00,weatherlink.com 1.10,2013-01-14 18:21:00,
2013-01-14 13:36:00,43.1,36.0,30.06,ESE,115,0.0,5.0,76,0.00,,,0.00,weatherlink.com 1.10,2013-01-14 18:36:00,
2013-01-14 13:51:00,42.0,34.0,30.06,ENE,67,0.0,4.0,74,0.00,,,0.00,weatherlink.com 1.10,2013-01-14 18:51:00,
2013-01-14 14:06:00,41.1,34.0,30.07,SSW,200,0.0,2.0,75,0.00,,,0.00,weatherlink.com 1.10,2013-01-14 19:06:00,
2013-01-14 14:21:00,40.9,33.0,30.07,North,11,2.0,6.0,74,0.00,,,0.00,weatherlink.com 1.10,2013-01-14 19:21:00,
2013-01-14 14:36:00,40.8,32.0,30.08,NE,48,0.0,2.0,70,0.00,,,0.00,weatherlink.com 1.10,2013-01-14 19:36:00,
2013-01-14 14:51:00,40.1,30.0,30.09,WNW,303,1.0,4.0,67,0.00,,,0.00,weatherlink.com 1.10,2013-01-14 19:51:00,
2013-01-14 15:06:00,39.5,30.0,30.10,ENE,65,0.0,4.0,68,0.00,,,0.00,weatherlink.com 1.10,2013-01-14 20:06:00,
2013-01-14 15:21:00,38.7,30.0,30.11,ENE,65,0.0,3.0,70,0.00,,,0.00,weatherlink.com 1.10,2013-01-14 20:21:00,
2013-01-14 15:36:00,38.1,30.0,30.12,WSW,244,0.0,1.0,73,0.00,,,0.00,weatherlink.com 1.10,2013-01-14 20:36:00,
2013-01-14 15:51:00,37.5,29.0,30.14,SSE,157,0.0,4.0,72,0.00,,,0.00,weatherlink.com 1.10,2013-01-14 20:51:00,
2013-01-14 16:06:00,36.4,30.0,30.15,North,10,0.0,4.0,76,0.00,,,0.00,weatherlink.com 1.10,2013-01-14 21:06:00,
2013-01-14 16:22:00,35.1,29.0,30.16,WSW,242,0.0,1.0,77,0.00,,,0.00,weatherlink.com 1.10,2013-01-14 21:22:00,
2013-01-14 16:37:00,34.1,29.0,30.16,SW,229,0.0,2.0,80,0.00,,,0.00,weatherlink.com 1.10,2013-01-14 21:37:00,
2013-01-14 16:52:00,33.5,28.0,30.15,WSW,246,0.0,2.0,80,0.00,,,0.00,weatherlink.com 1.10,2013-01-14 21:52:00,
2013-01-14 17:07:00,32.9,27.0,30.15,SE,146,2.0,2.0,79,0.00,,,0.00,weatherlink.com 1.10,2013-01-14 22:07:00,
2013-01-14 17:22:00,32.5,27.0,30.16,SE,138,0.0,1.0,79,0.00,,,0.00,weatherlink.com 1.10,2013-01-14 22:22:00,
2013-01-14 17:37:00,31.9,27.0,30.15,SE,128,0.0,1.0,82,0.00,,,0.00,weatherlink.com 1.10,2013-01-14 22:37:00,
2013-01-14 17:52:00,31.0,26.0,30.15,WNW,300,0.0,1.0,82,0.00,,,0.00,weatherlink.com 1.10,2013-01-14 22:52:00,
2013-01-14 18:07:00,30.5,26.0,30.15,SW,217,0.0,1.0,82,0.00,,,0.00,weatherlink.com 1.10,2013-01-14 23:07:00,
2013-01-14 18:22:00,29.6,25.0,30.15,SSE,161,0.0,0.0,82,0.00,,,0.00,weatherlink.com 1.10,2013-01-14 23:22:00,
2013-01-14 18:37:00,29.3,24.0,30.16,SW,219,0.0,1.0,82,0.00,,,0.00,weatherlink.com 1.10,2013-01-14 23:37:00,
2013-01-14 18:52:00,29.2,24.0,30.17,SW,219,0.0,0.0,82,0.00,,,0.00,weatherlink.com 1.10,2013-01-14 23:52:00,
2013-01-14 19:07:00,29.9,25.0,30.18,SW,219,0.0,1.0,83,0.00,,,0.00,weatherlink.com 1.10,2013-01-15 00:07:00,
2013-01-14 19:22:00,31.2,25.0,30.21,WSW,242,0.0,3.0,77,0.00,,,0.00,weatherlink.com 1.10,2013-01-15 00:22:00,
2013-01-14 19:37:00,31.7,25.0,30.21,SSW,209,0.0,1.0,76,0.00,,,0.00,weatherlink.com 1.10,2013-01-15 00:37:00,
2013-01-14 19:52:00,31.7,26.0,30.20,WSW,246,0.0,1.0,78,0.00,,,0.00,weatherlink.com 1.10,2013-01-15 00:52:00,
2013-01-14 20:07:00,31.6,25.0,30.22,SW,225,0.0,1.0,77,0.00,,,0.00,weatherlink.com 1.10,2013-01-15 01:07:00,
2013-01-14 20:22:00,31.6,25.0,30.22,SW,224,0.0,1.0,78,0.00,,,0.00,weatherlink.com 1.10,2013-01-15 01:22:00,
2013-01-14 20:37:00,31.5,26.0,30.23,SW,224,0.0,0.0,79,0.00,,,0.00,weatherlink.com 1.10,2013-01-15 01:37:00,
2013-01-14 20:52:00,31.4,26.0,30.23,ESE,123,0.0,1.0,81,0.00,,,0.00,weatherlink.com 1.10,2013-01-15 01:52:00,
2013-01-14 21:07:00,31.3,26.0,30.23,ENE,57,0.0,2.0,80,0.00,,,0.00,weatherlink.com 1.10,2013-01-15 02:07:00,
2013-01-14 21:22:00,31.0,26.0,30.22,SE,138,0.0,1.0,81,0.00,,,0.00,weatherlink.com 1.10,2013-01-15 02:22:00,
2013-01-14 21:37:00,30.8,26.0,30.21,East,84,0.0,1.0,82,0.00,,,0.00,weatherlink.com 1.10,2013-01-15 02:37:00,
2013-01-14 21:52:00,30.6,26.0,30.21,West,279,0.0,1.0,83,0.00,,,0.00,weatherlink.com 1.10,2013-01-15 02:52:00,
2013-01-14 22:07:00,30.4,25.0,30.21,SSW,195,0.0,2.0,81,0.00,,,0.00,weatherlink.com 1.10,2013-01-15 03:07:00,
2013-01-14 22:22:00,30.3,25.0,30.22,ESE,112,0.0,3.0,81,0.00,,,0.00,weatherlink.com 1.10,2013-01-15 03:22:00,
2013-01-14 22:37:00,30.1,25.0,30.21,SW,230,0.0,1.0,82,0.00,,,0.00,weatherlink.com 1.10,2013-01-15 03:37:00,
2013-01-14 22:52:00,30.0,25.0,30.21,SW,229,0.0,3.0,81,0.00,,,0.00,weatherlink.com 1.10,2013-01-15 03:52:00,
2013-01-14 23:07:00,29.9,25.0,30.21,SW,218,0.0,1.0,83,0.00,,,0.00,weatherlink.com 1.10,2013-01-15 04:07:00,
2013-01-14 23:22:00,29.8,24.0,30.22,SW,225,0.0,1.0,80,0.00,,,0.00,weatherlink.com 1.10,2013-01-15 04:22:00,
2013-01-14 23:37:00,29.8,25.0,30.24,SSW,203,0.0,3.0,82,0.00,,,0.00,weatherlink.com 1.10,2013-01-15 04:37:00,
2013-01-14 23:52:00,29.7,25.0,30.25,SW,230,0.0,2.0,81,0.00,,,0.00,weatherlink.com 1.10,2013-01-15 04:52:00,